< < Back
Terminal Aerodrome Forecast


Current Version              Previous Versions:   1  2  3  4  5  6  7  8  9  

Terminal Aerodrome Forecast

726
FTUS42 KFFC 242320
TAFMCN
TAF
KMCN 242320Z 2500/2524 21003KT P6SM FEW080
     FM251500 24005KT P6SM FEW050
     FM251700 21007KT P6SM SCT060=

Latest METAR

222
SAUS80 KWBC 251600 RRB
MTRMCN
METAR KMCN 251553Z 24007KT 10SM CLR 28/17 A3025 RMK AO2 SLP239
T02830167


USA.gov is the U.S. government's official web portal to all federal, state and local government web resources and services.